Time;durP1;ratioP1;P1;durP2;ratioP2;P2;SDS_P1;SDS_P2;PMS_P1;PMS_P2;Temp;Humidity;BMP_temperature;BMP_pressure;BME280_temperature;BME280_humidity;BME280_pressure;Samples;Min_cycle;Max_cycle;Signal;HPM_P1;HPM_P2
2023/10/30 00:01:11;;;;;;;11.85;9.10;;;;;;;11.70;100.00;98491.94;5033397;28;20061;-84
2023/10/30 00:03:37;;;;;;;18.00;10.50;;;;;;;11.85;100.00;98513.56;5033024;28;20103;-84
2023/10/30 00:06:02;;;;;;;20.65;12.07;;;;;;;11.82;100.00;98508.53;5032201;28;20033;-84
2023/10/30 00:08:28;;;;;;;15.70;9.13;;;;;;;12.07;100.00;98542.41;5033117;28;20026;-84
2023/10/30 00:10:53;;;;;;;18.45;9.55;;;;;;;12.05;100.00;98523.44;5033510;28;20033;-84
2023/10/30 00:13:18;;;;;;;14.00;8.18;;;;;;;11.94;100.00;98498.09;5032922;28;20048;-84
2023/10/30 00:15:44;;;;;;;12.65;7.95;;;;;;;12.24;100.00;98539.44;5033039;28;20026;-84
2023/10/30 00:18:09;;;;;;;15.13;8.15;;;;;;;12.16;100.00;98520.88;5031649;28;20029;-84
2023/10/30 00:20:37;;;;;;;11.63;7.25;;;;;;;12.03;100.00;98503.59;5032675;28;20036;-84
2023/10/30 00:23:03;;;;;;;11.05;6.53;;;;;;;12.31;100.00;98539.03;5032997;28;20032;-84
2023/10/30 00:25:28;;;;;;;9.43;7.18;;;;;;;12.36;100.00;98548.19;5031459;28;20485;-85
2023/10/30 00:27:56;;;;;;;10.10;6.78;;;;;;;12.22;100.00;98530.91;5031573;28;20022;-84
2023/10/30 00:30:21;;;;;;;11.15;6.43;;;;;;;12.43;100.00;98564.25;5032665;28;20029;-84
2023/10/30 00:32:46;;;;;;;7.47;6.15;;;;;;;12.36;100.00;98550.81;5032787;28;20033;-84
2023/10/30 00:35:12;;;;;;;9.63;5.85;;;;;;;12.37;100.00;98562.06;5032635;28;20035;-84
2023/10/30 00:37:37;;;;;;;8.10;5.47;;;;;;;12.30;100.00;98537.34;5032651;28;20073;-85
2023/10/30 00:40:03;;;;;;;7.82;5.88;;;;;;;12.44;100.00;98556.31;5032725;28;20051;-84
2023/10/30 00:42:28;;;;;;;8.48;6.13;;;;;;;12.14;100.00;98501.91;5032501;28;20091;-84
2023/10/30 00:44:54;;;;;;;10.63;6.20;;;;;;;12.46;100.00;98541.34;5032601;28;20025;-85
2023/10/30 00:47:19;;;;;;;7.63;5.72;;;;;;;12.40;100.00;98538.38;5032503;28;20362;-84
2023/10/30 00:49:45;;;;;;;10.20;5.65;;;;;;;12.48;100.00;98549.94;5032359;28;20034;-84
2023/10/30 00:52:13;;;;;;;6.57;5.57;;;;;;;12.37;100.00;98539.41;5032604;28;20028;-84
2023/10/30 00:54:38;;;;;;;9.40;5.90;;;;;;;12.43;100.00;98545.97;5032270;28;20030;-84
2023/10/30 00:57:04;;;;;;;9.20;5.43;;;;;;;12.38;100.00;98535.84;5031132;28;20026;-84
2023/10/30 00:59:29;;;;;;;7.75;6.10;;;;;;;12.44;100.00;98540.66;5032433;28;20041;-84
2023/10/30 01:01:54;;;;;;;8.30;5.88;;;;;;;12.20;100.00;98508.47;5032302;28;20045;-84
2023/10/30 01:04:20;;;;;;;7.90;6.28;;;;;;;12.37;100.00;98535.97;5032355;28;20433;-84
2023/10/30 01:06:45;;;;;;;10.40;6.68;;;;;;;12.27;100.00;98512.31;5032101;28;20048;-84
2023/10/30 01:09:11;;;;;;;7.47;5.78;;;;;;;12.33;100.00;98537.13;5030918;28;20025;-84
2023/10/30 01:11:37;;;;;;;9.82;6.45;;;;;;;12.39;100.00;98544.53;5032046;28;20025;-84
2023/10/30 01:14:03;;;;;;;10.90;6.43;;;;;;;12.33;100.00;98534.50;5031932;28;20504;-84
2023/10/30 01:16:28;;;;;;;7.88;5.97;;;;;;;12.09;100.00;98503.97;5031568;28;20030;-83
2023/10/30 01:18:53;;;;;;;9.15;5.88;;;;;;;12.20;100.00;98526.72;5030593;28;20141;-84
2023/10/30 01:21:20;;;;;;;8.82;6.45;;;;;;;12.28;100.00;98539.25;5032151;28;20508;-84
2023/10/30 01:23:45;;;;;;;11.13;6.85;;;;;;;12.32;100.00;98561.56;5031826;28;20021;-84
2023/10/30 01:26:11;;;;;;;11.40;7.95;;;;;;;12.29;100.00;98554.78;5030590;28;20568;-84
2023/10/30 01:28:36;;;;;;;15.43;9.25;;;;;;;12.08;100.00;98517.16;5031705;28;20034;-84
2023/10/30 01:31:04;;;;;;;16.10;9.27;;;;;;;11.92;100.00;98489.53;5031962;28;20465;-84
2023/10/30 01:33:30;;;;;;;15.88;8.68;;;;;;;12.15;100.00;98537.50;5032082;28;20353;-84
2023/10/30 01:35:55;;;;;;;13.32;8.38;;;;;;;12.05;100.00;98533.03;5031722;28;20031;-84
2023/10/30 01:38:21;;;;;;;12.07;8.68;;;;;;;11.98;100.00;98530.84;5031828;28;20124;-84
2023/10/30 01:40:50;;;;;;;12.52;8.38;;;;;;;11.78;100.00;98504.47;5031714;28;20025;-84
2023/10/30 01:43:16;;;;;;;15.70;8.93;;;;;;;11.90;100.00;98520.13;5031859;28;20354;-84
2023/10/30 01:45:41;;;;;;;14.75;9.02;;;;;;;11.86;100.00;98529.09;5030400;28;20064;-84
2023/10/30 01:48:08;;;;;;;14.27;9.35;;;;;;;11.62;100.00;98487.25;5031754;28;20109;-84
2023/10/30 01:50:35;;;;;;;14.60;8.13;;;;;;;11.74;100.00;98520.31;5031707;28;20033;-84
2023/10/30 01:53:01;;;;;;;10.52;7.43;;;;;;;11.76;100.00;98537.66;5031647;28;20026;-84
2023/10/30 01:55:27;;;;;;;13.60;8.60;;;;;;;11.73;100.00;98520.44;5031467;28;20079;-84
2023/10/30 01:57:52;;;;;;;10.43;8.57;;;;;;;11.82;100.00;98511.13;5031695;28;20034;-84
2023/10/30 02:00:18;;;;;;;10.38;8.00;;;;;;;11.58;100.00;98479.75;5031884;28;20018;-84
2023/10/30 02:02:43;;;;;;;9.05;7.15;;;;;;;11.70;100.00;98486.72;5031295;28;20025;-84
2023/10/30 02:05:09;;;;;;;12.85;7.88;;;;;;;11.69;100.00;98483.28;5031696;28;20025;-84
2023/10/30 02:07:35;;;;;;;11.57;7.50;;;;;;;11.68;100.00;98483.41;5031360;28;20037;-84
2023/10/30 02:10:03;;;;;;;9.40;7.43;;;;;;;11.92;100.00;98510.41;5031573;28;20025;-84
2023/10/30 02:12:28;;;;;;;11.27;7.32;;;;;;;11.91;100.00;98532.22;5031359;28;20025;-84
2023/10/30 02:14:55;;;;;;;11.40;7.78;;;;;;;11.78;100.00;98494.84;5031447;28;20104;-84
2023/10/30 02:17:20;;;;;;;11.88;7.25;;;;;;;11.79;100.00;98486.06;5030025;28;20120;-84
2023/10/30 02:19:45;;;;;;;10.45;6.30;;;;;;;11.97;100.00;98526.59;5031344;28;20176;-84
2023/10/30 02:22:11;;;;;;;8.00;6.78;;;;;;;11.83;100.00;98499.78;5030211;28;20038;-84
2023/10/30 02:24:36;;;;;;;8.45;7.00;;;;;;;12.03;100.00;98553.19;5029855;28;20032;-84
2023/10/30 02:27:02;;;;;;;10.00;7.72;;;;;;;11.82;100.00;98511.97;5030093;28;20033;-84
2023/10/30 02:29:27;;;;;;;10.65;6.88;;;;;;;11.77;100.00;98502.78;5031717;28;20018;-84
2023/10/30 02:31:54;;;;;;;12.85;7.68;;;;;;;11.95;100.00;98530.22;5034957;28;20139;-84
2023/10/30 02:34:19;;;;;;;8.57;6.10;;;;;;;11.83;100.00;98531.91;5035144;28;20064;-84
2023/10/30 02:36:44;;;;;;;9.98;6.20;;;;;;;11.59;100.00;98502.31;5034841;28;20521;-84
2023/10/30 02:39:10;;;;;;;9.50;6.60;;;;;;;11.65;100.00;98518.34;5034903;28;20053;-84
2023/10/30 02:41:35;;;;;;;6.63;5.75;;;;;;;11.61;100.00;98513.44;5033329;28;20022;-84
2023/10/30 02:44:01;;;;;;;9.10;5.50;;;;;;;11.68;100.00;98531.19;5034779;28;20025;-84
2023/10/30 02:46:26;;;;;;;9.30;6.00;;;;;;;11.69;100.00;98534.63;5034680;28;20108;-84
2023/10/30 02:48:52;;;;;;;9.23;5.47;;;;;;;11.47;100.00;98501.38;5034850;28;20372;-84
2023/10/30 02:51:17;;;;;;;9.13;5.85;;;;;;;11.78;100.00;98544.41;5034839;28;20056;-84
2023/10/30 02:53:43;;;;;;;5.75;4.57;;;;;;;11.79;100.00;98553.91;5034760;28;20485;-84
2023/10/30 02:56:09;;;;;;;7.50;5.10;;;;;;;11.86;100.00;98573.44;5033323;28;20071;-84
2023/10/30 02:58:34;;;;;;;5.93;5.00;;;;;;;11.83;100.00;98570.22;5034323;28;20424;-84
2023/10/30 03:01:00;;;;;;;9.13;5.78;;;;;;;11.76;100.00;98548.09;5034467;28;20104;-83
2023/10/30 03:03:26;;;;;;;5.93;5.15;;;;;;;11.81;100.00;98556.44;5034709;28;20116;-84
2023/10/30 03:05:51;;;;;;;7.50;4.82;;;;;;;11.52;100.00;98508.88;5032990;28;20572;-84
2023/10/30 03:08:17;;;;;;;6.35;4.93;;;;;;;11.69;100.00;98532.03;5033111;28;20025;-84
2023/10/30 03:10:42;;;;;;;8.38;5.03;;;;;;;11.74;100.00;98550.78;5034080;28;20108;-84
2023/10/30 03:13:07;;;;;;;6.00;4.95;;;;;;;11.85;100.00;98576.19;5034253;28;20064;-84
2023/10/30 03:15:33;;;;;;;8.40;5.38;;;;;;;11.90;100.00;98582.75;5032550;28;20515;-84
2023/10/30 03:17:58;;;;;;;7.38;5.20;;;;;;;11.70;100.00;98554.53;5034636;28;20037;-84
2023/10/30 03:20:23;;;;;;;7.28;5.28;;;;;;;11.65;100.00;98567.91;5032933;28;20033;-84
2023/10/30 03:22:49;;;;;;;7.43;5.75;;;;;;;11.57;100.00;98556.31;5033972;28;20029;-84
2023/10/30 03:25:15;;;;;;;7.90;5.50;;;;;;;11.52;100.00;98554.03;5034026;28;20026;-84
2023/10/30 03:27:41;;;;;;;8.55;5.85;;;;;;;11.58;100.00;98574.47;5032527;28;20373;-84
2023/10/30 03:30:07;;;;;;;10.82;5.53;;;;;;;11.57;100.00;98579.78;5033873;28;20025;-84
2023/10/30 03:32:32;;;;;;;6.63;4.85;;;;;;;11.51;100.00;98560.19;5033868;28;20060;-83
2023/10/30 03:34:59;;;;;;;9.82;5.53;;;;;;;11.42;100.00;98564.25;5034022;28;20531;-84
2023/10/30 03:37:24;;;;;;;8.10;5.40;;;;;;;11.50;100.00;98587.19;5034083;28;20046;-84
2023/10/30 03:39:50;;;;;;;7.75;5.30;;;;;;;11.46;100.00;98599.63;5033492;28;20477;-84
2023/10/30 03:42:15;;;;;;;7.22;5.25;;;;;;;11.16;100.00;98567.75;5033662;28;20034;-84
2023/10/30 03:44:40;;;;;;;9.38;5.90;;;;;;;11.33;100.00;98605.72;5033359;28;20028;-84
2023/10/30 03:47:06;;;;;;;6.53;4.95;;;;;;;11.07;100.00;98563.16;5033843;28;20034;-84
2023/10/30 03:49:31;;;;;;;8.52;5.68;;;;;;;11.05;100.00;98571.06;5032326;28;20416;-83
2023/10/30 03:51:56;;;;;;;8.40;5.38;;;;;;;11.21;100.00;98608.22;5033626;28;20393;-84
2023/10/30 03:54:22;;;;;;;10.80;6.22;;;;;;;11.04;100.00;98595.47;5033546;28;20378;-84
2023/10/30 03:56:48;;;;;;;7.53;5.28;;;;;;;11.17;100.00;98617.19;5033236;28;20459;-84
2023/10/30 03:59:15;;;;;;;7.07;5.50;;;;;;;11.16;100.00;98619.88;5033313;28;20025;-84
2023/10/30 04:01:40;;;;;;;10.40;6.20;;;;;;;11.26;100.00;98644.41;5033343;28;20037;-84
2023/10/30 04:04:07;;;;;;;9.52;6.20;;;;;;;11.02;100.00;98594.72;5033402;28;20036;-84
2023/10/30 04:06:33;;;;;;;11.48;7.28;;;;;;;11.07;100.00;98599.63;5031709;28;20021;-84
2023/10/30 04:08:58;;;;;;;8.90;6.90;;;;;;;10.98;100.00;98596.69;5031912;28;20496;-84
2023/10/30 04:11:23;;;;;;;8.27;6.30;;;;;;;11.15;100.00;98626.03;5033228;28;20029;-84
2023/10/30 04:13:49;;;;;;;11.88;6.63;;;;;;;11.03;100.00;98600.75;5031492;28;20026;-84
2023/10/30 04:16:18;;;;;;;9.88;6.50;;;;;;;11.12;100.00;98608.81;5033310;28;20053;-84
2023/10/30 04:18:43;;;;;;;9.43;6.05;;;;;;;10.95;100.00;98583.84;5031651;28;20026;-84
2023/10/30 04:21:09;;;;;;;9.23;6.25;;;;;;;11.10;100.00;98621.13;5033355;28;20068;-84
2023/10/30 04:23:34;;;;;;;7.40;6.00;;;;;;;10.81;100.00;98588.31;5032743;28;20029;-84
2023/10/30 04:25:59;;;;;;;11.15;6.60;;;;;;;10.99;100.00;98629.63;5031644;28;20041;-84
2023/10/30 04:28:25;;;;;;;8.82;6.55;;;;;;;10.96;100.00;98624.63;5031408;28;20150;-84
2023/10/30 04:30:50;;;;;;;8.95;6.47;;;;;;;10.95;100.00;98637.72;5032857;28;20483;-84
2023/10/30 04:33:15;;;;;;;10.32;7.10;;;;;;;10.95;100.00;98641.16;5031534;28;20021;-84
2023/10/30 04:35:41;;;;;;;8.43;6.80;;;;;;;10.85;100.00;98616.66;5032792;28;20037;-84
2023/10/30 04:38:08;;;;;;;8.05;6.82;;;;;;;10.93;100.00;98637.84;5031356;28;20053;-84
2023/10/30 04:40:33;;;;;;;10.18;6.53;;;;;;;10.87;100.00;98640.84;5032638;28;20480;-84
2023/10/30 04:42:59;;;;;;;8.50;6.00;;;;;;;10.92;100.00;98638.78;5032255;28;20373;-84
2023/10/30 04:45:24;;;;;;;11.40;7.32;;;;;;;10.87;100.00;98633.03;5031348;28;20025;-84
2023/10/30 04:47:49;;;;;;;11.13;8.02;;;;;;;11.05;100.00;98667.50;5032167;28;20025;-84
2023/10/30 04:50:15;;;;;;;9.25;7.68;;;;;;;10.79;100.00;98622.28;5032533;28;20503;-84
2023/10/30 04:52:40;;;;;;;10.48;6.90;;;;;;;11.03;100.00;98645.06;5032061;28;20055;-84
2023/10/30 04:55:06;;;;;;;7.13;6.43;;;;;;;10.93;100.00;98630.03;5032275;28;20026;-84
2023/10/30 04:57:31;;;;;;;10.55;8.02;;;;;;;10.92;100.00;98607.53;5032309;28;20032;-84
2023/10/30 04:59:57;;;;;;;13.63;8.20;;;;;;;10.93;100.00;98606.56;5064231;28;20362;-83
2023/10/30 05:02:22;;;;;;;11.52;8.60;;;;;;;10.97;100.00;98613.25;5032459;28;20464;-84
2023/10/30 05:04:48;;;;;;;12.20;7.80;;;;;;;10.82;100.00;98592.56;5031968;28;20041;-84
2023/10/30 05:07:13;;;;;;;12.75;8.35;;;;;;;10.89;100.00;98597.28;5032219;28;20080;-84
2023/10/30 05:09:38;;;;;;;10.45;8.05;;;;;;;11.13;100.00;98646.16;5031981;28;20075;-84
2023/10/30 05:12:04;;;;;;;8.38;7.43;;;;;;;11.15;100.00;98652.09;5032077;28;20047;-84
2023/10/30 05:14:29;;;;;;;11.30;7.57;;;;;;;11.21;100.00;98665.56;5031936;28;20036;-84
2023/10/30 05:16:55;;;;;;;10.43;7.15;;;;;;;11.04;100.00;98634.56;5031963;28;20049;-84
2023/10/30 05:19:20;;;;;;;10.25;6.97;;;;;;;11.13;100.00;98649.59;5032192;28;20040;-84
2023/10/30 05:21:45;;;;;;;10.57;6.25;;;;;;;11.05;100.00;98625.81;5031862;28;20112;-84
2023/10/30 05:24:11;;;;;;;10.25;6.85;;;;;;;11.08;100.00;98638.63;5031924;28;20057;-84
2023/10/30 05:26:37;;;;;;;9.48;6.85;;;;;;;11.05;100.00;98631.00;5063869;28;20037;-84
2023/10/30 05:29:03;;;;;;;8.35;6.25;;;;;;;11.10;100.00;98633.31;5031934;28;20033;-84
2023/10/30 05:31:28;;;;;;;16.05;9.23;;;;;;;11.16;100.00;98651.97;5031932;28;20021;-84
2023/10/30 05:33:53;;;;;;;13.55;9.07;;;;;;;11.05;100.00;98644.03;5031893;28;20040;-83
2023/10/30 05:36:19;;;;;;;15.80;9.48;;;;;;;11.04;100.00;98642.38;5032221;28;20022;-84
2023/10/30 05:38:44;;;;;;;13.95;9.07;;;;;;;11.11;100.00;98656.66;5031404;28;20045;-84
2023/10/30 05:41:09;;;;;;;11.60;8.57;;;;;;;11.06;100.00;98634.44;5032110;28;20547;-84
2023/10/30 05:43:35;;;;;;;16.80;10.18;;;;;;;10.90;100.00;98616.34;5031896;28;20035;-83
2023/10/30 05:46:00;;;;;;;16.00;12.10;;;;;;;10.65;100.00;98591.88;5031728;28;20023;-84
2023/10/30 05:48:25;;;;;;;21.45;14.18;;;;;;;10.90;100.00;98645.84;5032186;28;20037;-83
2023/10/30 05:50:51;;;;;;;20.90;15.02;;;;;;;10.97;100.00;98648.91;5030251;28;20025;-84
2023/10/30 05:53:16;;;;;;;28.00;18.80;;;;;;;11.08;100.00;98654.28;5030461;28;20034;-84
2023/10/30 05:55:43;;;;;;;40.20;29.10;;;;;;;11.05;100.00;98636.22;5031663;28;20409;-84
2023/10/30 05:58:09;;;;;;;33.70;25.77;;;;;;;11.15;100.00;98668.56;5031631;28;20524;-84
2023/10/30 06:00:34;;;;;;;25.67;19.67;;;;;;;11.10;100.00;98655.00;5031863;28;20034;-84
2023/10/30 06:03:00;;;;;;;25.38;17.77;;;;;;;11.15;100.00;98655.53;5031578;28;20427;-84
2023/10/30 06:05:26;;;;;;;19.05;15.15;;;;;;;11.23;100.00;98665.47;5034022;28;20025;-84
2023/10/30 06:07:52;;;;;;;18.98;13.93;;;;;;;10.93;100.00;98621.38;5035497;28;20080;-84
2023/10/30 06:10:19;;;;;;;19.27;13.35;;;;;;;10.98;100.00;98617.53;5035401;28;20420;-84
2023/10/30 06:12:47;;;;;;;19.48;12.52;;;;;;;10.98;100.00;98608.88;5033768;28;20076;-84
2023/10/30 06:15:15;;;;;;;14.40;10.43;;;;;;;11.26;100.00;98664.44;5035385;28;20026;-83
2023/10/30 06:17:41;;;;;;;18.60;12.85;;;;;;;10.97;100.00;98630.66;5034206;28;20416;-84
2023/10/30 06:20:07;;;;;;;19.10;15.05;;;;;;;11.08;100.00;98651.66;5035378;28;20021;-84
2023/10/30 06:22:32;;;;;;;17.40;13.82;;;;;;;11.15;100.00;98658.13;5035146;28;20520;-83
2023/10/30 06:25:00;;;;;;;19.65;13.13;;;;;;;10.94;100.00;98617.84;5034978;28;20025;-84
2023/10/30 06:27:26;;;;;;;26.10;16.88;;;;;;;10.99;100.00;98642.63;5035053;28;20026;-84
2023/10/30 06:29:51;;;;;;;27.20;17.17;;;;;;;11.07;100.00;98663.00;5035074;28;20032;-84
2023/10/30 06:32:17;;;;;;;18.98;15.30;;;;;;;10.98;100.00;98645.34;5035043;28;20029;-84
2023/10/30 06:34:42;;;;;;;29.58;23.02;;;;;;;10.96;100.00;98635.03;5035078;28;20632;-84
2023/10/30 06:37:07;;;;;;;24.73;18.98;;;;;;;11.04;100.00;98644.13;5034726;28;20025;-84
2023/10/30 06:39:33;;;;;;;17.98;14.48;;;;;;;11.16;100.00;98670.22;5034741;28;20025;-84
2023/10/30 06:41:58;;;;;;;21.15;15.00;;;;;;;11.10;100.00;98649.78;5034634;28;20133;-84
2023/10/30 06:44:24;;;;;;;15.93;12.73;;;;;;;11.07;100.00;98630.91;5035080;28;20436;-84
2023/10/30 06:46:50;;;;;;;15.38;12.13;;;;;;;11.24;100.00;98654.09;5034891;28;20025;-84
2023/10/30 06:49:16;;;;;;;15.32;12.10;;;;;;;11.42;100.00;98676.38;5034948;28;20029;-84
2023/10/30 06:51:42;;;;;;;13.32;11.82;;;;;;;11.37;100.00;98648.91;5035061;28;20059;-84
2023/10/30 06:54:11;;;;;;;16.73;11.90;;;;;;;11.63;100.00;98675.88;5034433;28;20108;-84
2023/10/30 06:56:37;;;;;;;21.52;15.30;;;;;;;11.42;100.00;98645.09;5034189;28;20465;-83
2023/10/30 06:59:02;;;;;;;11.30;7.65;;;;;;;11.42;100.00;98646.84;5034179;28;20033;-84
2023/10/30 07:01:33;;;;;;;10.70;6.97;;;;;;;11.53;100.00;98665.22;5034427;28;20025;-84
2023/10/30 07:03:59;;;;;;;10.32;6.35;;;;;;;11.55;100.00;98667.75;5066051;28;20091;-84
2023/10/30 07:06:24;;;;;;;10.10;6.80;;;;;;;11.49;100.00;98643.72;5034241;28;20105;-84
2023/10/30 07:08:50;;;;;;;6.50;5.88;;;;;;;11.80;100.00;98675.59;5034005;28;20026;-84
2023/10/30 07:11:16;;;;;;;9.48;5.93;;;;;;;11.85;100.00;98673.53;5034122;28;20477;-84
2023/10/30 07:13:41;;;;;;;6.82;5.38;;;;;;;11.97;100.00;98684.94;5034236;28;20074;-84
2023/10/30 07:16:07;;;;;;;6.75;6.00;;;;;;;12.11;100.00;98699.66;5033551;28;20057;-84
2023/10/30 07:18:33;;;;;;;8.52;6.35;;;;;;;12.10;100.00;98682.31;5065999;28;20028;-84
2023/10/30 07:20:58;;;;;;;7.18;6.40;;;;;;;12.05;100.00;98668.72;5033804;28;20021;-84
2023/10/30 07:23:24;;;;;;;6.65;5.57;;;;;;;11.98;100.00;98644.84;5033893;28;20025;-84
2023/10/30 07:25:49;;;;;;;7.10;5.32;;;;;;;12.32;100.00;98692.97;5033727;28;20029;-87
2023/10/30 07:28:16;;;;;;;5.00;4.50;;;;;;;12.39;100.00;98698.59;5066028;28;20026;-88
2023/10/30 07:30:41;;;;;;;6.45;5.03;;;;;;;12.53;100.00;98706.31;5032502;28;20083;-88
2023/10/30 07:33:07;;;;;;;5.78;5.10;;;;;;;12.69;100.00;98711.31;5033694;28;20030;-88
2023/10/30 07:35:32;;;;;;;8.13;5.10;;;;;;;12.69;100.00;98706.91;5033767;28;20034;-88
2023/10/30 07:37:58;;;;;;;5.25;4.75;;;;;;;12.73;100.00;98704.91;5033558;28;20064;-88
2023/10/30 07:40:25;;;;;;;8.48;6.18;;;;;;;12.64;100.00;98682.88;5065715;28;20428;-84
2023/10/30 07:42:53;;;;;;;8.05;5.10;;;;;;;12.84;100.00;98711.97;5033691;28;20028;-83
2023/10/30 07:45:18;;;;;;;7.88;6.50;;;;;;;12.84;100.00;98699.75;5033882;28;20017;-84
2023/10/30 07:47:44;;;;;;;7.35;5.53;;;;;;;13.02;100.00;98722.91;5033824;28;20037;-84
2023/10/30 07:50:09;;;;;;;8.63;6.30;;;;;;;13.18;100.00;98739.16;5033376;28;20036;-84
2023/10/30 07:52:35;;;;;;;7.07;5.85;;;;;;;13.21;100.00;98734.56;5033590;28;20091;-86
2023/10/30 07:55:01;;;;;;;5.95;5.30;;;;;;;13.24;100.00;98733.53;5031404;28;20029;-86
2023/10/30 07:57:27;;;;;;;7.55;5.90;;;;;;;13.40;100.00;98756.78;5033201;28;20550;-86
2023/10/30 07:59:52;;;;;;;6.90;5.95;;;;;;;13.35;100.00;98740.59;5031820;28;20033;-87
2023/10/30 08:02:18;;;;;;;6.82;6.18;;;;;;;13.39;100.00;98755.94;5033406;28;20396;-86
2023/10/30 08:04:43;;;;;;;7.40;6.15;;;;;;;13.50;100.00;98770.06;5032075;28;20021;-87
2023/10/30 08:07:08;;;;;;;7.28;6.03;;;;;;;13.57;100.00;98766.03;5031533;28;20461;-86
2023/10/30 08:09:34;;;;;;;8.75;6.10;;;;;;;13.44;100.00;98755.63;5033370;28;20025;-86
2023/10/30 08:11:59;;;;;;;6.53;5.50;;;;;;;13.31;100.00;98731.31;5033124;28;20400;-87
2023/10/30 08:14:24;;;;;;;8.90;6.10;;;;;;;13.28;100.00;98740.22;5033800;28;20487;-86
2023/10/30 08:16:50;;;;;;;8.23;5.80;;;;;;;13.30;100.00;98742.72;5031536;28;20037;-87
2023/10/30 08:19:16;;;;;;;7.18;5.88;;;;;;;13.39;100.00;98770.81;5031702;28;20036;-86
2023/10/30 08:21:41;;;;;;;7.88;5.68;;;;;;;13.13;100.00;98721.19;5032930;28;20061;-88
2023/10/30 08:24:07;;;;;;;6.65;5.72;;;;;;;13.45;100.00;98758.13;5031268;28;20072;-86
2023/10/30 08:26:32;;;;;;;8.02;5.40;;;;;;;13.35;100.00;98740.59;5031198;28;20033;-89
2023/10/30 08:28:58;;;;;;;5.75;4.90;;;;;;;13.57;100.00;98761.66;5031420;28;20071;-89
2023/10/30 08:31:23;;;;;;;6.60;5.45;;;;;;;13.68;100.00;98773.94;5031600;28;20473;-88
2023/10/30 08:33:48;;;;;;;7.90;5.63;;;;;;;13.57;100.00;98745.94;5033005;28;20416;-86
2023/10/30 08:36:21;;;;;;;8.05;5.60;;;;;;;13.88;100.00;98775.09;5030982;28;20472;-87
2023/10/30 08:38:46;;;;;;;8.10;5.20;;;;;;;13.90;100.00;98762.72;5032387;28;20045;-87
2023/10/30 08:41:15;;;;;;;5.75;4.93;;;;;;;13.84;100.00;98742.25;5032370;28;20087;-87
2023/10/30 08:43:41;;;;;;;7.05;4.80;;;;;;;14.02;100.00;98768.81;5032765;28;20108;-87
2023/10/30 08:46:06;;;;;;;10.48;5.07;;;;;;;13.72;100.00;98717.81;5032172;28;20037;-87
2023/10/30 08:48:31;;;;;;;5.88;4.97;;;;;;;13.72;100.00;98712.56;5032446;28;20033;-87
2023/10/30 08:50:57;;;;;;;6.70;5.10;;;;;;;14.05;100.00;98771.22;5030691;28;20044;-87
2023/10/30 08:53:22;;;;;;;7.15;5.30;;;;;;;13.97;100.00;98753.47;5032850;28;20108;-87
2023/10/30 08:55:47;;;;;;;7.40;4.53;;;;;;;14.00;100.00;98755.84;5031187;28;20052;-87
2023/10/30 08:58:13;;;;;;;6.85;5.05;;;;;;;14.15;100.00;98783.50;5030455;28;20029;-87
2023/10/30 09:00:38;;;;;;;8.18;4.28;;;;;;;14.21;100.00;98775.19;5030513;28;20496;-87
2023/10/30 09:03:03;;;;;;;5.15;4.43;;;;;;;14.22;100.00;98773.41;5030115;28;20121;-87
2023/10/30 09:05:29;;;;;;;5.32;3.88;;;;;;;14.19;100.00;98760.53;5031780;28;20030;-87
2023/10/30 09:07:55;;;;;;;9.48;4.75;;;;;;;14.31;100.00;98777.94;5029063;28;20465;-87
2023/10/30 09:10:26;;;;;;;7.43;4.90;;;;;;;14.33;100.00;98783.91;5031217;28;20029;-87
2023/10/30 09:12:51;;;;;;;7.97;5.10;;;;;;;14.11;100.00;98745.38;5030328;28;20033;-87
2023/10/30 09:15:17;;;;;;;7.35;4.43;;;;;;;14.32;100.00;98763.06;5031499;28;20036;-87
2023/10/30 09:17:42;;;;;;;7.20;4.53;;;;;;;14.40;100.00;98772.00;5030311;28;20081;-87
2023/10/30 09:20:12;;;;;;;6.05;4.32;;;;;;;14.15;100.00;98723.25;5031144;28;20087;-87
2023/10/30 09:22:37;;;;;;;7.15;5.18;;;;;;;14.17;100.00;98733.63;5030191;28;20075;-86
2023/10/30 09:25:03;;;;;;;6.65;3.75;;;;;;;14.26;100.00;98747.81;5031421;28;20100;-87
2023/10/30 09:27:28;;;;;;;8.05;4.40;;;;;;;14.41;100.00;98767.59;5029763;28;20109;-87
2023/10/30 09:29:53;;;;;;;8.52;4.18;;;;;;;14.42;100.00;98764.03;5028597;28;20051;-86
2023/10/30 09:32:19;;;;;;;6.15;4.20;;;;;;;14.42;100.00;98761.41;5028483;28;20079;-87
2023/10/30 09:34:44;;;;;;;6.03;4.03;;;;;;;14.36;100.00;98746.16;5029876;28;20025;-86
2023/10/30 09:37:10;;;;;;;4.82;3.97;;;;;;;14.53;100.00;98773.72;5030423;28;20567;-87
2023/10/30 09:39:36;;;;;;;6.20;4.40;;;;;;;14.25;100.00;98733.88;5035444;28;20136;-87
2023/10/30 09:42:02;;;;;;;8.00;4.80;;;;;;;14.44;100.00;98762.13;5037097;28;20029;-87
2023/10/30 09:44:29;;;;;;;4.40;4.00;;;;;;;14.60;100.00;98785.41;5035778;28;20128;-87
2023/10/30 09:46:56;;;;;;;6.68;4.35;;;;;;;14.56;100.00;98757.75;5037401;28;20087;-87
2023/10/30 09:49:22;;;;;;;6.15;3.90;;;;;;;14.47;100.00;98744.38;5037734;28;20431;-87
2023/10/30 09:51:49;;;;;;;3.67;3.35;;;;;;;14.55;100.00;98746.44;5036315;28;20025;-87
2023/10/30 09:54:17;;;;;;;6.80;3.40;;;;;;;14.52;100.00;98735.38;5036269;28;20120;-85
2023/10/30 09:56:43;;;;;;;4.45;3.60;;;;;;;14.77;100.00;98768.38;5037704;28;20491;-86
2023/10/30 09:59:10;;;;;;;4.18;3.65;;;;;;;14.77;100.00;98761.34;5037508;28;20025;-83
2023/10/30 10:01:35;;;;;;;6.80;3.33;;;;;;;14.77;100.00;98765.75;5037342;28;20036;-83
2023/10/30 10:04:00;;;;;;;3.80;3.33;;;;;;;14.77;100.00;98782.31;5036555;28;20029;-84
2023/10/30 10:06:26;;;;;;;5.57;4.22;;;;;;;14.73;100.00;98762.53;5037672;28;20029;-83
2023/10/30 10:08:51;;;;;;;5.32;3.35;;;;;;;14.77;100.00;98761.34;5037642;28;20029;-83
2023/10/30 10:11:20;;;;;;;4.07;3.28;;;;;;;14.78;100.00;98744.66;5037315;28;20029;-84
2023/10/30 10:13:48;;;;;;;4.72;3.53;;;;;;;14.76;100.00;98740.50;5037589;28;20083;-83
2023/10/30 10:16:13;;;;;;;4.53;3.50;;;;;;;14.75;100.00;98723.94;5035835;28;20112;-84
2023/10/30 10:18:39;;;;;;;5.05;3.70;;;;;;;14.73;100.00;98710.09;5037908;28;20147;-83
2023/10/30 10:21:08;;;;;;;3.10;2.80;;;;;;;15.03;100.00;98747.97;5036100;28;20419;-83
2023/10/30 10:23:36;;;;;;;3.55;2.78;;;;;;;14.90;100.00;98717.47;5037601;28;20095;-83
2023/10/30 10:26:14;;;;;;;5.30;3.10;;;;;;;15.05;100.00;98744.28;5036097;28;20029;-84
2023/10/30 10:28:41;;;;;;;3.47;3.00;;;;;;;15.11;100.00;98743.78;5037526;28;20028;-84
2023/10/30 10:31:07;;;;;;;3.67;2.85;;;;;;;15.08;100.00;98733.53;5037063;28;20064;-83
2023/10/30 10:33:33;;;;;;;3.95;2.88;;;;;;;15.22;100.00;98743.75;5037549;28;20508;-83
2023/10/30 10:36:04;;;;;;;4.13;3.17;;;;;;;15.27;100.00;98750.44;5036989;28;20143;-83
2023/10/30 10:38:31;;;;;;;4.13;2.83;;;;;;;15.20;100.00;98735.16;5036042;28;20045;-83
2023/10/30 10:40:56;;;;;;;3.28;2.72;;;;;;;15.33;100.00;98748.13;5037339;28;20033;-84
2023/10/30 10:43:24;;;;;;;4.97;2.70;;;;;;;15.38;100.00;98735.50;5037150;28;20507;-84
2023/10/30 10:45:52;;;;;;;3.72;2.42;;;;;;;15.26;100.00;98704.19;5036183;28;20040;-83
2023/10/30 10:48:18;;;;;;;3.47;3.13;;;;;;;15.27;100.00;98692.72;5037217;28;20037;-83
2023/10/30 10:50:44;;;;;;;3.60;2.60;;;;;;;15.44;100.00;98713.16;5033770;28;20079;-83
2023/10/30 10:53:10;;;;;;;4.00;3.45;;;;;;;15.22;100.00;98665.06;5034056;28;20036;-83
2023/10/30 10:55:47;;;;;;;2.38;2.17;;;;;;;15.26;100.00;98677.94;5034134;28;20116;-84
2023/10/30 10:58:17;;;;;;;3.53;2.60;;;;;;;15.51;100.00;98718.75;5033814;28;20104;-84
2023/10/30 11:00:51;;;;;;;3.70;2.50;;;;;;;15.65;100.00;98727.19;5033084;28;20037;-84
2023/10/30 11:03:18;;;;;;;5.22;2.70;;;;;;;15.57;100.00;98705.94;5031289;28;20132;-83
2023/10/30 11:05:47;;;;;;;3.38;2.70;;;;;;;15.46;100.00;98692.88;5034075;28;20033;-84
2023/10/30 11:08:32;;;;;;;4.07;2.53;;;;;;;15.66;100.00;98726.22;5033455;28;20079;-83
2023/10/30 11:11:23;;;;;;;3.10;2.50;;;;;;;15.72;100.00;98732.78;5033403;28;20358;-84
2023/10/30 11:13:58;;;;;;;2.43;2.17;;;;;;;15.75;99.97;98735.13;5013876;28;20026;-83
2023/10/30 11:16:45;;;;;;;3.90;2.35;;;;;;;15.75;100.00;98718.53;5013631;28;20756;-84